Time;durP1;ratioP1;P1;durP2;ratioP2;P2;SDS_P1;SDS_P2;PMS_P1;PMS_P2;Temp;Humidity;BMP_temperature;BMP_pressure;BME280_temperature;BME280_humidity;BME280_pressure;Samples;Min_cycle;Max_cycle;Signal;HPM_P1;HPM_P2
2023/06/02 00:00:00;;;;;;;2.35;2.25;;;15.30;92.50;;;;;;5019473;28;20230;-81
2023/06/02 00:02:29;;;;;;;2.47;2.38;;;15.30;92.30;;;;;;5009927;28;20184;-80
2023/06/02 00:04:59;;;;;;;2.15;2.05;;;15.30;92.40;;;;;;5020590;28;20189;-79
2023/06/02 00:07:25;;;;;;;2.22;2.13;;;15.40;92.20;;;;;;5017917;28;20612;-79
2023/06/02 00:09:51;;;;;;;2.70;2.60;;;15.40;92.30;;;;;;5017951;28;20609;-79
2023/06/02 00:12:17;;;;;;;3.50;2.80;;;15.30;92.70;;;;;;5008394;28;20199;-80
2023/06/02 00:14:42;;;;;;;4.82;3.00;;;15.40;92.40;;;;;;5021467;28;20185;-80
2023/06/02 00:17:10;;;;;;;2.92;2.53;;;15.40;92.40;;;;;;5013301;28;20200;-80
2023/06/02 00:19:37;;;;;;;3.42;2.88;;;15.40;92.40;;;;;;5009581;28;20720;-80
2023/06/02 00:22:06;;;;;;;3.47;2.80;;;15.40;92.50;;;;;;5017043;28;20272;-80
2023/06/02 00:24:32;;;;;;;2.70;2.50;;;15.50;92.60;;;;;;5011614;28;20723;-80
2023/06/02 00:26:58;;;;;;;2.95;2.75;;;15.50;92.20;;;;;;5013863;28;20185;-80
2023/06/02 00:29:23;;;;;;;2.75;2.58;;;15.50;92.20;;;;;;5013831;28;20209;-80
2023/06/02 00:31:49;;;;;;;2.97;2.78;;;15.60;92.00;;;;;;5007322;28;20189;-81
2023/06/02 00:34:15;;;;;;;3.33;2.58;;;15.60;92.00;;;;;;5005053;28;20192;-81
2023/06/02 00:36:40;;;;;;;2.88;2.67;;;15.60;92.00;;;;;;5007535;28;20196;-80
2023/06/02 00:39:07;;;;;;;3.15;2.58;;;15.50;92.20;;;;;;5008545;28;20185;-81
2023/06/02 00:41:33;;;;;;;4.13;2.60;;;15.30;92.30;;;;;;5021634;28;20275;-80
2023/06/02 00:43:59;;;;;;;2.72;2.63;;;15.10;92.70;;;;;;5013788;28;20184;-80
2023/06/02 00:46:25;;;;;;;5.30;2.35;;;15.10;93.00;;;;;;5021455;28;20194;-80
2023/06/02 00:48:51;;;;;;;2.80;2.70;;;15.20;92.70;;;;;;5014958;28;20292;-80
2023/06/02 00:51:17;;;;;;;2.83;2.65;;;15.30;92.30;;;;;;5026416;28;20268;-80
2023/06/02 00:53:44;;;;;;;2.40;2.25;;;15.30;92.10;;;;;;5011352;28;20268;-80
2023/06/02 00:56:14;;;;;;;2.72;2.63;;;15.20;92.70;;;;;;5024399;28;20180;-80
2023/06/02 00:58:44;;;;;;;2.72;2.58;;;15.20;92.50;;;;;;5018196;28;20184;-81
2023/06/02 01:01:11;;;;;;;2.88;2.67;;;15.30;92.50;;;;;;5021310;28;20192;-80
2023/06/02 01:03:44;;;;;;;3.03;2.00;;;15.10;93.50;;;;;;5013737;28;20231;-80
2023/06/02 01:06:13;;;;;;;2.65;2.50;;;15.10;93.60;;;;;;5021441;28;20180;-80
2023/06/02 01:08:40;;;;;;;3.03;2.70;;;15.10;93.00;;;;;;5016927;28;20213;-80
2023/06/02 01:11:07;;;;;;;2.60;2.50;;;15.10;93.40;;;;;;5029868;28;20190;-80
2023/06/02 01:13:34;;;;;;;2.78;2.63;;;15.20;92.80;;;;;;5026045;28;20185;-80
2023/06/02 01:16:00;;;;;;;2.60;2.50;;;15.10;93.40;;;;;;5016014;28;20184;-81
2023/06/02 01:18:29;;;;;;;2.63;2.42;;;15.10;93.60;;;;;;5024295;28;20190;-81
2023/06/02 01:21:00;;;;;;;2.47;2.38;;;15.10;93.30;;;;;;5030156;28;20180;-81
2023/06/02 01:23:32;;;;;;;2.33;2.13;;;15.20;92.70;;;;;;5025729;28;20576;-80
2023/06/02 01:25:58;;;;;;;2.42;2.33;;;15.10;93.10;;;;;;5025052;28;20189;-80
2023/06/02 01:28:25;;;;;;;2.80;2.70;;;15.10;92.70;;;;;;5016176;28;20227;-80
2023/06/02 01:30:57;;;;;;;3.30;3.00;;;15.00;93.60;;;;;;5024704;28;20181;-80
2023/06/02 01:33:29;;;;;;;2.70;2.50;;;15.10;93.10;;;;;;5027661;28;20264;-80
2023/06/02 01:35:59;;;;;;;3.08;2.78;;;15.20;92.70;;;;;;5052690;28;20185;-80
2023/06/02 01:38:28;;;;;;;3.20;2.92;;;15.30;92.50;;;;;;5018399;28;20655;-81
2023/06/02 01:40:58;;;;;;;4.60;2.65;;;15.30;92.50;;;;;;5023524;28;20184;-80
2023/06/02 01:43:24;;;;;;;5.28;2.65;;;15.30;92.50;;;;;;5022985;28;20256;-80
2023/06/02 01:45:51;;;;;;;2.20;2.10;;;15.40;92.70;;;;;;5026449;28;20565;-81
2023/06/02 01:48:17;;;;;;;2.78;2.55;;;15.40;92.50;;;;;;5013753;28;20686;-80
2023/06/02 01:50:44;;;;;;;3.83;2.75;;;15.40;92.70;;;;;;5019392;28;20575;-81
2023/06/02 01:53:09;;;;;;;2.60;2.42;;;15.50;92.60;;;;;;5021869;28;20184;-80
2023/06/02 01:55:35;;;;;;;6.03;2.70;;;15.50;92.20;;;;;;5018433;28;20177;-80
2023/06/02 01:58:01;;;;;;;2.78;2.63;;;15.50;92.00;;;;;;5019712;28;20184;-80
2023/06/02 02:00:27;;;;;;;2.67;2.58;;;15.50;92.60;;;;;;5020193;28;20238;-80
2023/06/02 02:02:53;;;;;;;2.42;2.33;;;15.50;92.30;;;;;;5005834;28;20268;-80
2023/06/02 02:05:19;;;;;;;5.70;2.58;;;15.50;92.40;;;;;;5023725;28;20310;-80
2023/06/02 02:07:46;;;;;;;3.05;2.78;;;15.50;92.50;;;;;;5017890;28;20177;-80
2023/06/02 02:10:13;;;;;;;2.45;2.35;;;15.50;92.60;;;;;;5016860;28;20175;-79
2023/06/02 02:12:39;;;;;;;2.70;2.55;;;15.40;92.50;;;;;;5017013;28;20718;-79
2023/06/02 02:15:06;;;;;;;3.38;3.05;;;15.40;92.50;;;;;;5016689;28;20177;-80
2023/06/02 02:17:36;;;;;;;2.60;2.50;;;15.40;92.40;;;;;;5011559;28;20192;-80
2023/06/02 02:20:04;;;;;;;3.20;2.90;;;15.40;92.50;;;;;;5012775;28;20180;-80
2023/06/02 02:22:30;;;;;;;2.90;2.70;;;15.40;92.50;;;;;;5009683;28;20181;-80
2023/06/02 02:24:56;;;;;;;2.60;2.50;;;15.40;92.30;;;;;;5011556;28;20544;-80
2023/06/02 02:27:22;;;;;;;2.70;2.58;;;15.50;92.40;;;;;;5009245;28;20197;-80
2023/06/02 02:29:48;;;;;;;2.75;2.33;;;15.50;92.50;;;;;;5012008;28;20205;-81
2023/06/02 02:32:14;;;;;;;2.45;2.35;;;15.50;92.60;;;;;;5017279;28;20620;-80
2023/06/02 02:34:39;;;;;;;2.70;2.60;;;15.50;92.70;;;;;;5010962;28;20200;-80
2023/06/02 02:37:08;;;;;;;2.95;2.15;;;15.50;92.30;;;;;;5010585;28;20184;-80
2023/06/02 02:39:35;;;;;;;2.90;2.70;;;15.60;92.30;;;;;;5007413;28;20183;-79
2023/06/02 02:42:00;;;;;;;2.95;2.78;;;15.60;92.00;;;;;;5008178;28;20216;-79
2023/06/02 02:44:26;;;;;;;3.17;2.97;;;15.60;92.00;;;;;;5023886;28;20204;-80
2023/06/02 02:46:52;;;;;;;2.95;2.80;;;15.50;92.20;;;;;;5015420;28;20216;-82
2023/06/02 02:49:17;;;;;;;2.83;2.72;;;15.50;92.40;;;;;;5017554;28;20220;-78
2023/06/02 02:51:43;;;;;;;3.00;2.80;;;15.50;92.40;;;;;;5007289;28;20189;-78
2023/06/02 02:54:09;;;;;;;2.70;2.50;;;15.40;92.80;;;;;;5009500;28;20185;-79
2023/06/02 02:56:36;;;;;;;2.72;2.58;;;15.40;92.60;;;;;;5011642;28;20260;-78
2023/06/02 02:59:02;;;;;;;2.75;2.55;;;15.50;92.70;;;;;;5006179;28;20197;-78
2023/06/02 03:01:29;;;;;;;2.55;2.45;;;15.50;92.70;;;;;;5012677;28;20178;-78
2023/06/02 03:03:56;;;;;;;2.67;2.58;;;15.50;92.70;;;;;;5023344;28;20184;-78
2023/06/02 03:06:28;;;;;;;2.60;2.50;;;15.50;92.70;;;;;;5009318;28;20199;-78
2023/06/02 03:08:53;;;;;;;2.85;2.65;;;15.50;92.60;;;;;;5019858;28;20201;-78
2023/06/02 03:11:21;;;;;;;3.00;2.80;;;15.60;92.60;;;;;;5022399;28;20263;-78
2023/06/02 03:13:47;;;;;;;2.65;2.45;;;15.60;92.60;;;;;;5024296;28;20226;-78
2023/06/02 03:16:13;;;;;;;4.28;2.25;;;15.60;92.50;;;;;;5023523;28;20185;-78
2023/06/02 03:18:38;;;;;;;3.10;2.90;;;15.60;92.50;;;;;;5021057;28;20177;-78
2023/06/02 03:21:05;;;;;;;3.00;2.80;;;15.60;92.50;;;;;;5025748;28;20259;-78
2023/06/02 03:23:31;;;;;;;3.72;2.60;;;15.60;92.60;;;;;;5002596;28;20210;-78
2023/06/02 03:26:00;;;;;;;2.55;2.45;;;15.60;92.40;;;;;;5019482;28;20181;-78
2023/06/02 03:28:25;;;;;;;3.08;2.17;;;15.60;92.60;;;;;;5016614;28;20227;-78
2023/06/02 03:30:51;;;;;;;3.67;2.55;;;15.50;93.10;;;;;;5038142;28;20193;-78
2023/06/02 03:33:17;;;;;;;2.55;2.45;;;15.60;93.00;;;;;;5008439;28;20180;-80
2023/06/02 03:35:42;;;;;;;3.22;2.97;;;15.60;93.10;;;;;;5015735;28;20192;-80
2023/06/02 03:38:08;;;;;;;2.63;2.53;;;15.60;92.90;;;;;;5013473;28;20581;-80
2023/06/02 03:40:34;;;;;;;2.97;2.58;;;15.70;93.10;;;;;;5019214;28;20180;-78
2023/06/02 03:43:00;;;;;;;2.92;2.72;;;15.70;93.10;;;;;;5018243;28;20181;-77
2023/06/02 03:45:25;;;;;;;3.63;3.25;;;15.70;93.30;;;;;;5014867;28;20230;-78
2023/06/02 03:47:51;;;;;;;3.15;3.00;;;15.70;93.20;;;;;;5011049;28;20221;-79
2023/06/02 03:50:17;;;;;;;2.65;2.45;;;15.70;93.30;;;;;;5011990;28;20242;-79
2023/06/02 03:52:42;;;;;;;5.03;2.75;;;15.70;93.00;;;;;;5009197;28;20674;-78
2023/06/02 03:55:08;;;;;;;4.35;2.67;;;15.70;93.00;;;;;;5016672;28;20323;-79
2023/06/02 03:57:34;;;;;;;3.45;3.22;;;15.80;93.10;;;;;;5008611;28;20177;-78
2023/06/02 04:00:00;;;;;;;2.45;2.35;;;15.70;92.80;;;;;;5015256;28;20274;-79
2023/06/02 04:02:25;;;;;;;2.20;2.10;;;15.80;93.00;;;;;;5011242;28;20165;-79
2023/06/02 04:04:51;;;;;;;3.00;2.78;;;15.80;93.00;;;;;;5012901;28;20177;-79
2023/06/02 04:07:17;;;;;;;4.20;2.92;;;15.80;93.00;;;;;;5007307;28;20263;-79
2023/06/02 04:09:42;;;;;;;3.53;3.22;;;15.80;93.00;;;;;;5013535;28;20204;-78
2023/06/02 04:12:09;;;;;;;3.33;3.13;;;15.80;92.80;;;;;;5026336;28;20794;-79
2023/06/02 04:14:34;;;;;;;3.17;3.03;;;15.80;92.80;;;;;;5016777;28;20710;-78
2023/06/02 04:17:00;;;;;;;2.90;2.70;;;15.80;92.80;;;;;;5025009;28;20212;-79
2023/06/02 04:19:25;;;;;;;3.05;2.85;;;15.80;92.80;;;;;;5015292;28;20250;-78
2023/06/02 04:21:53;;;;;;;3.28;3.08;;;15.80;92.80;;;;;;5007588;28;20191;-79
2023/06/02 04:24:18;;;;;;;3.35;3.00;;;15.90;92.80;;;;;;5008519;28;20181;-80
2023/06/02 04:26:46;;;;;;;3.53;2.95;;;15.90;92.80;;;;;;5010643;28;20584;-80
2023/06/02 04:29:13;;;;;;;3.30;3.05;;;15.90;92.90;;;;;;5009743;28;20232;-80
2023/06/02 04:31:43;;;;;;;3.42;3.22;;;15.90;93.00;;;;;;5016328;28;20180;-80
2023/06/02 04:34:13;;;;;;;3.88;3.20;;;15.90;92.70;;;;;;5016314;28;20331;-80
2023/06/02 04:36:40;;;;;;;2.92;2.70;;;16.00;92.70;;;;;;5016587;28;20185;-84
2023/06/02 04:39:09;;;;;;;3.05;2.85;;;16.00;92.90;;;;;;5010390;28;20645;-82
2023/06/02 04:41:36;;;;;;;3.33;3.08;;;16.00;92.80;;;;;;5041868;28;20184;-85
2023/06/02 04:44:06;;;;;;;3.45;3.25;;;16.10;93.00;;;;;;5012933;28;20276;-82
2023/06/02 04:46:32;;;;;;;2.83;2.67;;;16.10;92.90;;;;;;5016363;28;20569;-81
2023/06/02 04:48:58;;;;;;;2.65;2.50;;;16.10;92.90;;;;;;5019264;28;20216;-82
2023/06/02 04:51:27;;;;;;;2.88;2.67;;;16.20;92.80;;;;;;5010336;28;20183;-82
2023/06/02 04:53:53;;;;;;;2.97;2.78;;;16.20;92.60;;;;;;5009313;28;20189;-80
2023/06/02 04:56:19;;;;;;;2.85;2.65;;;16.30;92.70;;;;;;5009804;28;20695;-81
2023/06/02 04:58:45;;;;;;;2.85;2.65;;;16.30;92.60;;;;;;5016093;28;20693;-82
2023/06/02 05:01:10;;;;;;;5.05;2.42;;;16.30;92.30;;;;;;5014015;28;20197;-81
2023/06/02 05:03:36;;;;;;;3.55;2.33;;;16.30;92.40;;;;;;5018981;28;20192;-81
2023/06/02 05:06:02;;;;;;;6.47;2.40;;;16.40;92.20;;;;;;5012277;28;20681;-78
2023/06/02 05:08:28;;;;;;;2.85;2.65;;;16.40;92.30;;;;;;5011468;28;20200;-79
2023/06/02 05:10:53;;;;;;;3.17;3.05;;;16.50;92.00;;;;;;5008860;28;20188;-79
2023/06/02 05:13:19;;;;;;;2.95;2.75;;;16.50;91.80;;;;;;5011168;28;20610;-79
2023/06/02 05:15:45;;;;;;;2.78;2.58;;;16.50;92.00;;;;;;5005139;28;20195;-79
2023/06/02 05:18:14;;;;;;;2.50;2.38;;;16.50;91.80;;;;;;5013479;28;20177;-79
2023/06/02 05:20:41;;;;;;;3.00;2.80;;;16.60;91.90;;;;;;5007990;28;20173;-80
2023/06/02 05:23:07;;;;;;;3.15;2.95;;;16.60;91.60;;;;;;5011440;28;20959;-79
2023/06/02 05:25:33;;;;;;;2.85;2.75;;;16.60;91.60;;;;;;5019441;28;20279;-80
2023/06/02 05:27:58;;;;;;;4.22;2.70;;;16.70;91.30;;;;;;5009268;28;20640;-77
2023/06/02 05:30:24;;;;;;;3.75;3.55;;;16.70;91.10;;;;;;5011508;28;20767;-78
2023/06/02 05:32:50;;;;;;;4.97;3.17;;;16.70;91.20;;;;;;5013597;28;20176;-78
2023/06/02 05:35:15;;;;;;;3.60;3.33;;;16.80;91.40;;;;;;5016332;28;20173;-78
2023/06/02 05:37:42;;;;;;;3.15;2.67;;;16.80;91.20;;;;;;5015382;28;20177;-79
2023/06/02 05:40:09;;;;;;;3.22;3.03;;;16.90;91.10;;;;;;5007544;28;20235;-77
2023/06/02 05:42:35;;;;;;;4.78;3.13;;;17.00;90.80;;;;;;5017811;28;20235;-79
2023/06/02 05:45:02;;;;;;;3.10;2.97;;;17.00;90.50;;;;;;5008833;28;20189;-79
2023/06/02 05:47:30;;;;;;;5.28;2.58;;;17.10;90.30;;;;;;5005448;28;20233;-77
2023/06/02 05:49:55;;;;;;;2.78;2.67;;;17.10;89.60;;;;;;5037279;28;20212;-79
2023/06/02 05:52:21;;;;;;;2.65;2.25;;;17.10;89.90;;;;;;5004898;28;20619;-78
2023/06/02 05:54:47;;;;;;;3.33;2.65;;;17.10;88.20;;;;;;5010609;28;20185;-79
2023/06/02 05:57:13;;;;;;;4.05;2.42;;;17.20;89.50;;;;;;5021165;28;20189;-78
2023/06/02 05:59:39;;;;;;;2.70;2.50;;;17.30;89.20;;;;;;5020168;28;20181;-79
2023/06/02 06:02:06;;;;;;;2.78;2.67;;;17.40;89.30;;;;;;5023117;28;20181;-78
2023/06/02 06:04:32;;;;;;;2.75;2.65;;;17.50;88.30;;;;;;5015674;28;20185;-79
2023/06/02 06:06:59;;;;;;;3.03;2.83;;;17.50;86.10;;;;;;5021240;28;21254;-77
2023/06/02 06:09:24;;;;;;;2.67;2.00;;;17.60;87.00;;;;;;5021155;28;20208;-78
2023/06/02 06:11:50;;;;;;;2.53;2.42;;;17.70;87.10;;;;;;5016406;28;20819;-78
2023/06/02 06:14:16;;;;;;;3.50;3.20;;;17.80;87.50;;;;;;5024483;28;20191;-78
2023/06/02 06:16:41;;;;;;;3.60;2.97;;;17.80;86.40;;;;;;5007761;28;20188;-78
2023/06/02 06:19:07;;;;;;;8.73;3.03;;;17.90;86.20;;;;;;5015464;28;20185;-79
2023/06/02 06:21:33;;;;;;;3.40;3.08;;;18.10;87.10;;;;;;5016311;28;20728;-78
2023/06/02 06:23:59;;;;;;;2.80;2.60;;;18.10;86.60;;;;;;5019850;28;20212;-78
2023/06/02 06:26:24;;;;;;;6.15;2.88;;;18.20;86.90;;;;;;5021346;28;20177;-79
2023/06/02 06:28:50;;;;;;;2.95;2.75;;;18.30;86.70;;;;;;5022221;28;20212;-79
2023/06/02 06:31:16;;;;;;;2.60;2.50;;;18.40;86.90;;;;;;5010309;28;20173;-79
2023/06/02 06:33:41;;;;;;;3.50;3.20;;;18.50;86.80;;;;;;5018743;28;20199;-79
2023/06/02 06:36:07;;;;;;;2.92;2.72;;;18.60;87.30;;;;;;5010291;28;20184;-79
2023/06/02 06:38:33;;;;;;;3.53;3.33;;;18.60;86.30;;;;;;5010001;28;20314;-79
2023/06/02 06:40:58;;;;;;;3.88;3.35;;;18.70;85.80;;;;;;5009623;28;20220;-78
2023/06/02 06:43:24;;;;;;;4.38;3.08;;;18.80;86.40;;;;;;5010480;28;20271;-78
2023/06/02 06:45:50;;;;;;;3.95;3.13;;;18.90;86.00;;;;;;5011224;28;20212;-77
2023/06/02 06:48:15;;;;;;;4.03;3.15;;;18.90;86.20;;;;;;5016390;28;20209;-79
2023/06/02 06:50:41;;;;;;;2.95;2.75;;;19.00;86.20;;;;;;5041606;28;20622;-78
2023/06/02 06:53:08;;;;;;;3.10;3.00;;;19.00;85.30;;;;;;5014995;28;20185;-78
2023/06/02 06:55:34;;;;;;;4.25;2.90;;;19.10;85.00;;;;;;5010924;28;20192;-78
2023/06/02 06:58:00;;;;;;;2.83;2.72;;;19.20;85.20;;;;;;5015674;28;20181;-78
2023/06/02 07:00:26;;;;;;;5.45;3.17;;;19.20;85.00;;;;;;5014588;28;20185;-78
2023/06/02 07:02:52;;;;;;;4.00;2.70;;;19.30;84.50;;;;;;5019316;28;20246;-80
2023/06/02 07:05:18;;;;;;;2.97;2.88;;;19.40;84.50;;;;;;5023902;28;20571;-79
2023/06/02 07:07:45;;;;;;;3.15;3.05;;;19.50;84.60;;;;;;5011334;28;20268;-78
2023/06/02 07:10:13;;;;;;;3.50;3.30;;;19.60;84.40;;;;;;5008836;28;20172;-79
2023/06/02 07:12:39;;;;;;;3.25;3.05;;;19.70;84.40;;;;;;5007373;28;20185;-78
2023/06/02 07:15:05;;;;;;;3.17;2.97;;;19.80;84.30;;;;;;5011520;28;20192;-78
2023/06/02 07:17:31;;;;;;;5.13;2.67;;;20.00;84.30;;;;;;5011421;28;20173;-78
2023/06/02 07:19:57;;;;;;;3.00;2.70;;;20.10;84.20;;;;;;5009522;28;20200;-78
2023/06/02 07:22:22;;;;;;;3.20;3.00;;;20.30;83.20;;;;;;5010843;28;20757;-76
2023/06/02 07:24:48;;;;;;;3.08;2.88;;;20.40;81.50;;;;;;5009380;28;20568;-79
2023/06/02 07:27:14;;;;;;;9.55;2.88;;;20.60;82.60;;;;;;5011484;28;20205;-78
2023/06/02 07:29:40;;;;;;;4.47;2.83;;;20.70;79.40;;;;;;5010493;28;20213;-78
2023/06/02 07:32:08;;;;;;;2.67;2.58;;;20.90;80.50;;;;;;5003374;28;20204;-78
2023/06/02 07:34:34;;;;;;;3.03;2.92;;;21.00;80.90;;;;;;5010890;28;20650;-78
2023/06/02 07:37:02;;;;;;;4.45;4.03;;;21.20;79.40;;;;;;5011038;28;20227;-78
2023/06/02 07:39:28;;;;;;;6.95;3.63;;;21.30;78.70;;;;;;5011195;28;20168;-78
2023/06/02 07:41:54;;;;;;;3.88;3.47;;;21.40;76.60;;;;;;5018203;28;20196;-78
2023/06/02 07:44:20;;;;;;;4.60;3.47;;;21.50;75.90;;;;;;5011327;28;20177;-79
2023/06/02 07:46:46;;;;;;;3.00;2.90;;;21.60;74.50;;;;;;5023014;28;20203;-79
2023/06/02 07:49:12;;;;;;;3.10;2.90;;;21.60;75.60;;;;;;5009971;28;20231;-79
2023/06/02 07:51:38;;;;;;;2.70;2.63;;;21.70;76.10;;;;;;5010658;28;20555;-78
2023/06/02 07:54:04;;;;;;;2.85;2.75;;;21.90;75.20;;;;;;5018458;28;20173;-78
2023/06/02 07:56:30;;;;;;;3.17;2.92;;;22.00;74.30;;;;;;5010614;28;20181;-79
2023/06/02 07:58:56;;;;;;;4.85;3.03;;;22.10;75.00;;;;;;5010454;28;20274;-78
2023/06/02 08:01:21;;;;;;;2.65;2.55;;;22.30;74.80;;;;;;5011835;28;20703;-79
2023/06/02 08:03:47;;;;;;;3.22;2.78;;;22.40;76.40;;;;;;5009152;28;20916;-78
2023/06/02 08:06:13;;;;;;;3.05;2.40;;;22.60;75.20;;;;;;5010798;28;20173;-78
2023/06/02 08:08:39;;;;;;;3.05;2.75;;;22.80;75.80;;;;;;5010286;28;20215;-78
2023/06/02 08:11:05;;;;;;;3.35;2.58;;;22.90;73.30;;;;;;5010660;28;20173;-78
2023/06/02 08:13:30;;;;;;;3.88;2.55;;;23.00;72.60;;;;;;5010359;28;20252;-78
2023/06/02 08:15:57;;;;;;;2.72;2.53;;;23.00;71.50;;;;;;5009846;28;20256;-78
2023/06/02 08:18:23;;;;;;;2.95;2.75;;;23.10;72.40;;;;;;5008442;28;20184;-79
2023/06/02 08:20:48;;;;;;;3.25;3.05;;;23.20;72.80;;;;;;5008492;28;20185;-79
2023/06/02 08:23:14;;;;;;;2.80;2.70;;;23.30;71.40;;;;;;5008351;28;20736;-78
2023/06/02 08:25:40;;;;;;;2.92;2.83;;;23.40;71.50;;;;;;5015233;28;20234;-78
2023/06/02 08:28:06;;;;;;;2.92;2.80;;;23.50;70.90;;;;;;5018110;28;20224;-78
2023/06/02 08:30:35;;;;;;;2.67;2.47;;;23.60;70.40;;;;;;5015729;28;20181;-78
2023/06/02 08:33:02;;;;;;;3.00;2.80;;;23.70;68.60;;;;;;5009609;28;20173;-78
2023/06/02 08:35:30;;;;;;;3.50;3.28;;;23.80;68.00;;;;;;5009066;28;20673;-78
2023/06/02 08:37:56;;;;;;;3.05;2.85;;;23.90;68.20;;;;;;5009284;28;20709;-78
2023/06/02 08:40:27;;;;;;;4.50;3.10;;;23.90;68.60;;;;;;5010026;28;20189;-78
2023/06/02 08:42:53;;;;;;;3.38;3.17;;;23.90;68.90;;;;;;5015923;28;20192;-78
2023/06/02 08:45:22;;;;;;;3.40;3.20;;;24.00;70.10;;;;;;5009986;28;20620;-78
2023/06/02 08:47:53;;;;;;;5.05;3.03;;;24.10;69.50;;;;;;5008491;28;20803;-78
2023/06/02 08:50:23;;;;;;;3.35;3.15;;;24.10;69.20;;;;;;5009633;28;20662;-78
2023/06/02 08:52:50;;;;;;;3.60;3.30;;;24.20;71.20;;;;;;5012766;28;20183;-78
2023/06/02 08:55:16;;;;;;;3.08;2.92;;;24.20;70.50;;;;;;5014429;28;20291;-78
2023/06/02 08:57:42;;;;;;;3.42;3.13;;;24.20;71.10;;;;;;5009705;28;20169;-78
2023/06/02 09:00:08;;;;;;;3.15;2.95;;;24.10;72.50;;;;;;5018231;28;20254;-78
2023/06/02 09:02:34;;;;;;;3.03;2.83;;;24.10;71.50;;;;;;5008958;28;20180;-78
2023/06/02 09:05:02;;;;;;;2.65;2.50;;;24.10;72.60;;;;;;5008897;28;20177;-78
2023/06/02 09:07:28;;;;;;;3.50;3.35;;;24.10;72.00;;;;;;5012545;28;20177;-78
2023/06/02 09:09:55;;;;;;;2.95;2.85;;;24.10;71.10;;;;;;5013670;28;20724;-78
2023/06/02 09:12:21;;;;;;;3.03;2.83;;;24.20;70.60;;;;;;5014210;28;20177;-78
2023/06/02 09:15:05;;;;;;;3.33;3.03;;;24.20;71.10;;;;;;5013411;28;20177;-78
2023/06/02 09:17:31;;;;;;;3.05;2.85;;;24.30;70.70;;;;;;5005240;28;20180;-77
2023/06/02 09:20:10;;;;;;;2.95;2.58;;;24.30;71.70;;;;;;5013016;28;20197;-78
2023/06/02 09:22:52;;;;;;;6.63;2.65;;;24.30;71.70;;;;;;5006916;28;20188;-78
2023/06/02 09:25:28;;;;;;;2.80;2.70;;;24.50;71.60;;;;;;5017956;28;20565;-78
2023/06/02 09:27:56;;;;;;;2.70;2.60;;;24.50;68.60;;;;;;5013564;28;20198;-78
2023/06/02 09:30:22;;;;;;;2.40;2.30;;;24.60;68.20;;;;;;5012091;28;20189;-78
2023/06/02 09:33:03;;;;;;;4.55;2.75;;;24.70;67.20;;;;;;5013295;28;20165;-78
2023/06/02 09:35:42;;;;;;;2.65;2.55;;;24.90;69.50;;;;;;5016423;28;20193;-79
2023/06/02 09:38:13;;;;;;;2.28;2.25;;;25.00;67.90;;;;;;5012556;28;20663;-78
2023/06/02 09:40:40;;;;;;;2.60;2.50;;;25.20;67.90;;;;;;5012939;28;20177;-78
2023/06/02 09:43:08;;;;;;;2.42;2.33;;;25.40;65.30;;;;;;5013241;28;20173;-77
2023/06/02 09:46:00;;;;;;;3.05;2.85;;;25.50;65.30;;;;;;5012784;28;20698;-78
2023/06/02 09:48:29;;;;;;;2.65;2.55;;;25.70;66.50;;;;;;5005297;28;20564;-78
2023/06/02 09:50:56;;;;;;;3.35;2.75;;;25.90;65.80;;;;;;5012967;28;20541;-78
2023/06/02 09:53:23;;;;;;;2.80;2.70;;;26.10;64.40;;;;;;5020393;28;20267;-78
2023/06/02 09:55:50;;;;;;;2.63;2.53;;;26.30;64.40;;;;;;5012887;28;20225;-78
2023/06/02 09:58:17;;;;;;;3.03;2.75;;;26.50;67.10;;;;;;5013072;28;20181;-78
2023/06/02 10:00:43;;;;;;;3.00;2.88;;;26.70;66.60;;;;;;5020149;28;20183;-78
2023/06/02 10:03:08;;;;;;;2.95;2.83;;;26.80;65.40;;;;;;5013039;28;20181;-77
2023/06/02 10:05:35;;;;;;;2.72;2.63;;;26.90;65.30;;;;;;5011719;28;20180;-78
2023/06/02 10:08:30;;;;;;;5.68;3.10;;;27.00;65.70;;;;;;5026322;28;20183;-77
2023/06/02 10:11:43;;;;;;;2.50;2.40;;;27.10;65.20;;;;;;5025252;28;20183;-78
2023/06/02 10:14:47;;;;;;;2.78;2.58;;;27.20;62.80;;;;;;4996070;28;20201;-78
2023/06/02 10:17:20;;;;;;;3.08;2.97;;;27.20;64.40;;;;;;5016637;28;20177;-78
2023/06/02 10:20:03;;;;;;;2.53;2.42;;;27.30;63.80;;;;;;5011963;28;20180;-78
2023/06/02 10:22:37;;;;;;;3.00;2.90;;;27.30;63.40;;;;;;5011202;28;20193;-78
2023/06/02 10:25:06;;;;;;;2.60;2.50;;;27.20;61.70;;;;;;5011649;28;20612;-78
2023/06/02 10:27:34;;;;;;;3.50;3.20;;;26.90;64.50;;;;;;5012163;28;20193;-78
2023/06/02 10:30:00;;;;;;;2.85;2.75;;;26.60;60.50;;;;;;5014562;28;20208;-78
2023/06/02 10:32:28;;;;;;;3.08;2.88;;;26.50;64.20;;;;;;5012126;28;20181;-78
2023/06/02 10:34:57;;;;;;;2.50;2.33;;;26.40;60.00;;;;;;5013114;28;20638;-78
2023/06/02 10:37:24;;;;;;;3.47;3.30;;;26.50;63.60;;;;;;5011779;28;20188;-78
2023/06/02 10:39:52;;;;;;;2.08;2.08;;;26.70;60.40;;;;;;5011891;28;20235;-78
2023/06/02 10:42:30;;;;;;;2.83;2.72;;;26.90;60.60;;;;;;5010558;28;20207;-78
2023/06/02 10:45:17;;;;;;;2.55;2.45;;;27.10;59.90;;;;;;5011799;28;20169;-78
2023/06/02 10:47:43;;;;;;;2.67;2.58;;;27.50;59.60;;;;;;5011819;28;20247;-78
2023/06/02 10:50:10;;;;;;;2.30;2.20;;;28.00;57.00;;;;;;5011949;28;20219;-78
2023/06/02 10:53:00;;;;;;;2.85;2.75;;;28.50;57.20;;;;;;5013458;28;20193;-77
2023/06/02 10:55:30;;;;;;;3.38;3.20;;;29.30;54.70;;;;;;5015057;28;20166;-77
2023/06/02 10:58:07;;;;;;;2.97;2.85;;;29.70;54.00;;;;;;5017607;28;20684;-78
2023/06/02 11:00:35;;;;;;;3.10;2.90;;;29.80;55.60;;;;;;5021889;28;20717;-78
2023/06/02 11:03:22;;;;;;;2.80;2.60;;;30.00;55.20;;;;;;5016212;28;20181;-78
2023/06/02 11:05:54;;;;;;;3.08;2.85;;;30.50;54.80;;;;;;5014542;28;20180;-78
2023/06/02 11:08:23;;;;;;;2.75;2.65;;;31.10;55.60;;;;;;5009896;28;20208;-77
2023/06/02 11:10:50;;;;;;;2.35;2.25;;;31.80;54.80;;;;;;5001283;28;20192;-78
2023/06/02 11:13:16;;;;;;;2.05;2.03;;;32.50;55.10;;;;;;5006883;28;20200;-79
2023/06/02 11:16:02;;;;;;;3.50;2.40;;;33.00;53.10;;;;;;5010519;28;20276;-79
2023/06/02 11:18:28;;;;;;;2.17;2.10;;;33.50;49.20;;;;;;5010530;28;20181;-80
2023/06/02 11:20:55;;;;;;;2.05;2.05;;;33.60;49.10;;;;;;5009427;28;20188;-77
2023/06/02 11:23:22;;;;;;;2.30;2.30;;;34.00;49.60;;;;;;5011353;28;20188;-77
2023/06/02 11:25:49;;;;;;;2.40;2.30;;;34.00;49.50;;;;;;5012655;28;20272;-77
2023/06/02 11:28:21;;;;;;;3.08;2.38;;;34.10;53.70;;;;;;5008315;28;20612;-76
2023/06/02 11:30:47;;;;;;;2.67;2.50;;;33.90;51.20;;;;;;5007426;28;20169;-78
2023/06/02 11:33:13;;;;;;;2.45;2.08;;;33.70;51.10;;;;;;5010688;28;20246;-77
2023/06/02 11:35:46;;;;;;;2.30;2.20;;;33.40;51.80;;;;;;5007296;28;20200;-79
2023/06/02 11:38:16;;;;;;;2.28;2.10;;;;;;;;;;5006400;28;20188;-78
2023/06/02 11:40:42;;;;;;;2.05;1.90;;;;;;;;;;5005477;28;20216;-78
2023/06/02 11:43:08;;;;;;;2.03;2.03;;;;;;;;;;5008098;28;20238;-78
2023/06/02 11:45:36;;;;;;;2.35;2.25;;;;;;;;;;5011459;28;20193;-79
2023/06/02 11:48:08;;;;;;;3.78;2.28;;;31.60;56.60;;;;;;5013562;28;20184;-79
2023/06/02 11:50:34;;;;;;;2.03;1.92;;;31.20;56.60;;;;;;5013444;28;20173;-80
2023/06/02 11:53:00;;;;;;;2.63;2.53;;;30.80;57.30;;;;;;5013308;28;20247;-79
2023/06/02 11:55:34;;;;;;;2.20;2.10;;;30.60;56.10;;;;;;5017119;28;20196;-79
2023/06/02 11:58:20;;;;;;;2.95;2.70;;;30.20;57.10;;;;;;5014684;28;20243;-78
2023/06/02 12:00:47;;;;;;;2.38;2.28;;;29.90;57.50;;;;;;5017007;28;21186;-79
2023/06/02 12:03:14;;;;;;;2.60;2.50;;;;;;;;;;5013473;28;20264;-78
2023/06/02 12:05:44;;;;;;;3.10;2.90;;;;;;;;;;5008576;28;20937;-78
2023/06/02 12:08:20;;;;;;;2.67;2.17;;;29.20;58.50;;;;;;5009998;28;21202;-78
2023/06/02 12:10:46;;;;;;;2.50;1.80;;;29.70;54.90;;;;;;5009110;28;20215;-78
2023/06/02 12:13:32;;;;;;;2.95;2.75;;;30.30;52.90;;;;;;5004672;28;20214;-78
2023/06/02 12:16:19;;;;;;;2.63;2.40;;;30.70;56.10;;;;;;5008241;28;20735;-77
2023/06/02 12:18:46;;;;;;;2.30;2.20;;;;;;;;;;5006621;28;20203;-78
2023/06/02 12:21:26;;;;;;;2.55;1.95;;;31.90;51.80;;;;;;5007426;28;20203;-77
2023/06/02 12:23:53;;;;;;;2.47;2.28;;;32.60;49.30;;;;;;5004752;28;20217;-78
2023/06/02 12:26:19;;;;;;;1.67;1.67;;;33.00;49.20;;;;;;5007239;28;20282;-78
2023/06/02 12:28:45;;;;;;;2.35;2.20;;;33.40;49.90;;;;;;5006022;28;20212;-78
2023/06/02 12:31:11;;;;;;;2.05;1.92;;;33.90;50.70;;;;;;5007564;28;20203;-78
2023/06/02 12:33:40;;;;;;;1.98;1.98;;;34.30;51.10;;;;;;5007056;28;20199;-78
2023/06/02 12:36:07;;;;;;;1.63;1.52;;;;;;;;;;5007126;28;20642;-78
2023/06/02 12:38:34;;;;;;;2.10;2.10;;;;;;;;;;5004877;28;20222;-78
2023/06/02 12:41:00;;;;;;;1.80;1.80;;;35.40;45.10;;;;;;5004952;28;21654;-78
2023/06/02 12:43:26;;;;;;;2.28;2.17;;;;;;;;;;5003355;28;21687;-78
2023/06/02 12:45:52;;;;;;;2.30;2.20;;;;;;;;;;5007080;28;20566;-78
2023/06/02 12:48:18;;;;;;;1.98;1.88;;;34.60;47.70;;;;;;5005489;28;20254;-78
2023/06/02 12:50:44;;;;;;;1.95;1.90;;;;;;;;;;5007819;28;20250;-78
2023/06/02 12:53:11;;;;;;;2.03;1.88;;;34.60;49.40;;;;;;5004135;28;20293;-78